sensor_id;sensor_type;location;lat;lon;timestamp;temperature;humidity
35593;DHT22;64447;52.140;5.602;2023-09-19T00:00:23;16.20;99.90
35593;DHT22;64447;52.140;5.602;2023-09-19T00:02:54;16.30;99.90
35593;DHT22;64447;52.140;5.602;2023-09-19T00:05:20;15.60;99.90
35593;DHT22;64447;52.140;5.602;2023-09-19T00:07:52;16.20;99.90
35593;DHT22;64447;52.140;5.602;2023-09-19T00:10:21;16.20;99.90
35593;DHT22;64447;52.140;5.602;2023-09-19T00:12:47;16.00;99.90
35593;DHT22;64447;52.140;5.602;2023-09-19T00:15:13;16.10;99.90
35593;DHT22;64447;52.140;5.602;2023-09-19T00:17:43;16.10;99.90
35593;DHT22;64447;52.140;5.602;2023-09-19T00:20:09;16.10;99.90
35593;DHT22;64447;52.140;5.602;2023-09-19T00:22:41;15.80;99.90
35593;DHT22;64447;52.140;5.602;2023-09-19T00:25:11;15.90;99.90
35593;DHT22;64447;52.140;5.602;2023-09-19T00:27:38;15.70;99.90
35593;DHT22;64447;52.140;5.602;2023-09-19T00:30:09;15.90;99.90
35593;DHT22;64447;52.140;5.602;2023-09-19T00:32:40;16.00;99.90
35593;DHT22;64447;52.140;5.602;2023-09-19T00:35:06;15.90;99.90
35593;DHT22;64447;52.140;5.602;2023-09-19T00:37:33;15.70;99.90
35593;DHT22;64447;52.140;5.602;2023-09-19T00:39:59;15.80;99.90
35593;DHT22;64447;52.140;5.602;2023-09-19T00:42:25;15.80;99.90
35593;DHT22;64447;52.140;5.602;2023-09-19T00:44:51;15.80;99.90
35593;DHT22;64447;52.140;5.602;2023-09-19T00:47:18;15.80;99.90
35593;DHT22;64447;52.140;5.602;2023-09-19T00:53:22;15.90;99.90
35593;DHT22;64447;52.140;5.602;2023-09-19T00:55:49;15.80;99.90
35593;DHT22;64447;52.140;5.602;2023-09-19T00:58:17;15.70;99.90
35593;DHT22;64447;52.140;5.602;2023-09-19T01:00:44;15.70;99.90
35593;DHT22;64447;52.140;5.602;2023-09-19T01:03:10;15.60;99.90
35593;DHT22;64447;52.140;5.602;2023-09-19T01:05:38;15.70;99.90
35593;DHT22;64447;52.140;5.602;2023-09-19T01:08:04;15.50;99.90
35593;DHT22;64447;52.140;5.602;2023-09-19T01:10:30;15.70;99.90
35593;DHT22;64447;52.140;5.602;2023-09-19T01:29:42;15.70;99.90
35593;DHT22;64447;52.140;5.602;2023-09-19T01:32:10;15.60;99.90
35593;DHT22;64447;52.140;5.602;2023-09-19T01:35:08;15.80;99.90
35593;DHT22;64447;52.140;5.602;2023-09-19T01:37:38;15.70;99.90
35593;DHT22;64447;52.140;5.602;2023-09-19T01:40:04;15.70;99.90
35593;DHT22;64447;52.140;5.602;2023-09-19T01:43:10;15.60;99.90
35593;DHT22;64447;52.140;5.602;2023-09-19T01:54:01;15.80;99.90
35593;DHT22;64447;52.140;5.602;2023-09-19T01:56:40;15.80;99.90
35593;DHT22;64447;52.140;5.602;2023-09-19T01:59:12;15.80;99.90
35593;DHT22;64447;52.140;5.602;2023-09-19T02:01:39;15.80;99.90
35593;DHT22;64447;52.140;5.602;2023-09-19T02:07:31;15.60;99.90
35593;DHT22;64447;52.140;5.602;2023-09-19T02:09:57;15.50;99.90
35593;DHT22;64447;52.140;5.602;2023-09-19T02:12:25;15.50;99.90
35593;DHT22;64447;52.140;5.602;2023-09-19T02:14:51;15.50;99.90
35593;DHT22;64447;52.140;5.602;2023-09-19T02:17:17;15.50;99.90
35593;DHT22;64447;52.140;5.602;2023-09-19T02:23:04;15.40;99.90
35593;DHT22;64447;52.140;5.602;2023-09-19T02:25:30;15.30;99.90
35593;DHT22;64447;52.140;5.602;2023-09-19T02:27:57;15.20;99.90
35593;DHT22;64447;52.140;5.602;2023-09-19T02:30:24;15.10;99.90
35593;DHT22;64447;52.140;5.602;2023-09-19T02:32:51;15.10;99.90
35593;DHT22;64447;52.140;5.602;2023-09-19T02:38:39;15.00;99.90
35593;DHT22;64447;52.140;5.602;2023-09-19T02:41:04;14.90;99.90
35593;DHT22;64447;52.140;5.602;2023-09-19T02:43:30;15.00;99.90
35593;DHT22;64447;52.140;5.602;2023-09-19T02:45:56;14.80;99.90
35593;DHT22;64447;52.140;5.602;2023-09-19T02:48:22;14.90;99.90
35593;DHT22;64447;52.140;5.602;2023-09-19T02:50:51;14.90;99.90
35593;DHT22;64447;52.140;5.602;2023-09-19T02:53:17;14.80;99.90
35593;DHT22;64447;52.140;5.602;2023-09-19T02:55:42;14.80;99.90
35593;DHT22;64447;52.140;5.602;2023-09-19T02:58:08;14.80;99.90
35593;DHT22;64447;52.140;5.602;2023-09-19T03:00:36;14.80;99.90
35593;DHT22;64447;52.140;5.602;2023-09-19T03:03:02;14.80;99.90
35593;DHT22;64447;52.140;5.602;2023-09-19T03:08:49;14.80;99.90
35593;DHT22;64447;52.140;5.602;2023-09-19T03:11:17;14.80;99.90
35593;DHT22;64447;52.140;5.602;2023-09-19T03:13:51;14.70;99.90
35593;DHT22;64447;52.140;5.602;2023-09-19T03:16:17;14.70;99.90
35593;DHT22;64447;52.140;5.602;2023-09-19T03:18:44;14.70;99.90
35593;DHT22;64447;52.140;5.602;2023-09-19T03:21:10;14.60;99.90
35593;DHT22;64447;52.140;5.602;2023-09-19T03:23:36;14.60;99.90
35593;DHT22;64447;52.140;5.602;2023-09-19T03:26:01;14.50;99.90
35593;DHT22;64447;52.140;5.602;2023-09-19T03:28:27;14.40;99.90
35593;DHT22;64447;52.140;5.602;2023-09-19T03:31:03;14.40;99.90
35593;DHT22;64447;52.140;5.602;2023-09-19T03:33:29;14.40;99.90
35593;DHT22;64447;52.140;5.602;2023-09-19T03:35:57;14.40;99.90
35593;DHT22;64447;52.140;5.602;2023-09-19T03:38:27;14.30;99.90
35593;DHT22;64447;52.140;5.602;2023-09-19T03:40:54;14.30;99.90
35593;DHT22;64447;52.140;5.602;2023-09-19T03:43:19;14.20;99.90
35593;DHT22;64447;52.140;5.602;2023-09-19T03:45:45;14.30;99.90
35593;DHT22;64447;52.140;5.602;2023-09-19T03:48:12;14.30;99.90
35593;DHT22;64447;52.140;5.602;2023-09-19T03:54:00;14.40;99.90
35593;DHT22;64447;52.140;5.602;2023-09-19T03:56:26;14.20;99.90
35593;DHT22;64447;52.140;5.602;2023-09-19T03:58:51;14.10;99.90
35593;DHT22;64447;52.140;5.602;2023-09-19T04:01:17;14.10;99.90
35593;DHT22;64447;52.140;5.602;2023-09-19T04:03:44;14.20;99.90
35593;DHT22;64447;52.140;5.602;2023-09-19T04:06:16;14.10;99.90
35593;DHT22;64447;52.140;5.602;2023-09-19T04:08:42;14.10;99.90
35593;DHT22;64447;52.140;5.602;2023-09-19T04:11:08;14.20;99.90
35593;DHT22;64447;52.140;5.602;2023-09-19T04:13:34;14.10;99.90
35593;DHT22;64447;52.140;5.602;2023-09-19T04:16:00;14.10;99.90
35593;DHT22;64447;52.140;5.602;2023-09-19T04:18:26;14.20;99.90
35593;DHT22;64447;52.140;5.602;2023-09-19T04:24:13;14.20;99.90
35593;DHT22;64447;52.140;5.602;2023-09-19T04:26:39;14.00;99.90
35593;DHT22;64447;52.140;5.602;2023-09-19T04:29:05;14.00;99.90
35593;DHT22;64447;52.140;5.602;2023-09-19T04:31:31;14.00;99.90
35593;DHT22;64447;52.140;5.602;2023-09-19T04:33:57;14.00;99.90
35593;DHT22;64447;52.140;5.602;2023-09-19T04:36:24;14.00;99.90
35593;DHT22;64447;52.140;5.602;2023-09-19T04:38:50;14.10;99.90
35593;DHT22;64447;52.140;5.602;2023-09-19T04:41:15;14.10;99.90
35593;DHT22;64447;52.140;5.602;2023-09-19T04:43:41;14.20;99.90
35593;DHT22;64447;52.140;5.602;2023-09-19T04:46:07;14.10;99.90
35593;DHT22;64447;52.140;5.602;2023-09-19T04:48:32;14.50;99.90
35593;DHT22;64447;52.140;5.602;2023-09-19T04:54:22;14.10;99.90
35593;DHT22;64447;52.140;5.602;2023-09-19T04:56:48;13.90;99.90
35593;DHT22;64447;52.140;5.602;2023-09-19T04:59:14;13.80;99.90
35593;DHT22;64447;52.140;5.602;2023-09-19T05:01:40;13.90;99.90
35593;DHT22;64447;52.140;5.602;2023-09-19T05:04:06;13.90;99.90
35593;DHT22;64447;52.140;5.602;2023-09-19T05:06:31;13.90;99.90
35593;DHT22;64447;52.140;5.602;2023-09-19T05:09:00;13.90;99.90
35593;DHT22;64447;52.140;5.602;2023-09-19T05:11:26;13.90;99.90
35593;DHT22;64447;52.140;5.602;2023-09-19T05:13:52;13.90;99.90
35593;DHT22;64447;52.140;5.602;2023-09-19T05:16:21;13.80;99.90
35593;DHT22;64447;52.140;5.602;2023-09-19T05:18:47;13.80;99.90
35593;DHT22;64447;52.140;5.602;2023-09-19T05:24:34;13.90;99.90
35593;DHT22;64447;52.140;5.602;2023-09-19T05:27:00;13.90;99.90
35593;DHT22;64447;52.140;5.602;2023-09-19T05:29:26;13.90;99.90
35593;DHT22;64447;52.140;5.602;2023-09-19T05:31:51;13.90;99.90
35593;DHT22;64447;52.140;5.602;2023-09-19T05:34:20;13.90;99.90
35593;DHT22;64447;52.140;5.602;2023-09-19T05:36:45;13.90;99.90
35593;DHT22;64447;52.140;5.602;2023-09-19T05:39:11;14.00;99.90
35593;DHT22;64447;52.140;5.602;2023-09-19T05:41:37;14.00;99.90
35593;DHT22;64447;52.140;5.602;2023-09-19T05:44:05;14.00;99.90
35593;DHT22;64447;52.140;5.602;2023-09-19T05:46:32;14.00;99.90
35593;DHT22;64447;52.140;5.602;2023-09-19T05:48:58;14.00;99.90
35593;DHT22;64447;52.140;5.602;2023-09-19T05:51:24;13.90;99.90
35593;DHT22;64447;52.140;5.602;2023-09-19T05:53:50;14.00;99.90
35593;DHT22;64447;52.140;5.602;2023-09-19T05:56:17;13.90;99.90
35593;DHT22;64447;52.140;5.602;2023-09-19T05:58:44;14.10;99.90
35593;DHT22;64447;52.140;5.602;2023-09-19T06:01:10;14.10;99.90
35593;DHT22;64447;52.140;5.602;2023-09-19T06:03:35;14.10;99.90
35593;DHT22;64447;52.140;5.602;2023-09-19T06:09:23;14.20;99.90
35593;DHT22;64447;52.140;5.602;2023-09-19T06:11:48;14.20;99.90
35593;DHT22;64447;52.140;5.602;2023-09-19T06:14:14;14.20;99.90
35593;DHT22;64447;52.140;5.602;2023-09-19T06:16:40;14.20;99.90
35593;DHT22;64447;52.140;5.602;2023-09-19T06:19:06;14.20;99.90
35593;DHT22;64447;52.140;5.602;2023-09-19T06:24:55;14.40;99.90
35593;DHT22;64447;52.140;5.602;2023-09-19T06:27:21;14.40;99.90
35593;DHT22;64447;52.140;5.602;2023-09-19T06:29:47;14.40;99.90
35593;DHT22;64447;52.140;5.602;2023-09-19T06:32:12;14.50;99.90
35593;DHT22;64447;52.140;5.602;2023-09-19T06:34:38;14.50;99.90
35593;DHT22;64447;52.140;5.602;2023-09-19T06:37:04;14.50;99.90
35593;DHT22;64447;52.140;5.602;2023-09-19T06:39:31;14.60;99.90
35593;DHT22;64447;52.140;5.602;2023-09-19T06:41:57;14.60;99.90
35593;DHT22;64447;52.140;5.602;2023-09-19T06:44:23;14.70;99.90
35593;DHT22;64447;52.140;5.602;2023-09-19T06:46:50;14.80;99.90
35593;DHT22;64447;52.140;5.602;2023-09-19T06:49:17;14.70;99.90
35593;DHT22;64447;52.140;5.602;2023-09-19T06:51:43;14.80;99.90
35593;DHT22;64447;52.140;5.602;2023-09-19T06:54:09;14.80;99.90
35593;DHT22;64447;52.140;5.602;2023-09-19T06:56:35;14.80;99.90
35593;DHT22;64447;52.140;5.602;2023-09-19T06:59:01;14.80;99.90
35593;DHT22;64447;52.140;5.602;2023-09-19T07:01:28;14.90;99.90
35593;DHT22;64447;52.140;5.602;2023-09-19T07:03:53;15.00;99.90
35593;DHT22;64447;52.140;5.602;2023-09-19T07:09:41;14.70;99.90
35593;DHT22;64447;52.140;5.602;2023-09-19T07:12:07;15.00;99.90
35593;DHT22;64447;52.140;5.602;2023-09-19T07:14:33;15.00;99.90
35593;DHT22;64447;52.140;5.602;2023-09-19T07:16:59;15.00;99.90
35593;DHT22;64447;52.140;5.602;2023-09-19T07:19:26;15.10;99.90
35593;DHT22;64447;52.140;5.602;2023-09-19T07:21:54;15.10;99.90
35593;DHT22;64447;52.140;5.602;2023-09-19T07:24:19;15.20;99.90
35593;DHT22;64447;52.140;5.602;2023-09-19T07:26:47;15.10;99.90
35593;DHT22;64447;52.140;5.602;2023-09-19T07:29:13;15.20;99.90
35593;DHT22;64447;52.140;5.602;2023-09-19T07:31:39;15.30;99.90
35593;DHT22;64447;52.140;5.602;2023-09-19T07:34:05;15.40;99.90
35593;DHT22;64447;52.140;5.602;2023-09-19T07:39:52;15.40;99.90
35593;DHT22;64447;52.140;5.602;2023-09-19T07:42:18;15.50;99.90
35593;DHT22;64447;52.140;5.602;2023-09-19T07:44:44;15.50;99.90
35593;DHT22;64447;52.140;5.602;2023-09-19T07:47:14;15.50;99.90
35593;DHT22;64447;52.140;5.602;2023-09-19T07:49:39;15.50;99.90
35593;DHT22;64447;52.140;5.602;2023-09-19T07:55:28;15.70;99.90
35593;DHT22;64447;52.140;5.602;2023-09-19T07:57:54;15.80;99.90
35593;DHT22;64447;52.140;5.602;2023-09-19T08:00:20;15.80;99.90
35593;DHT22;64447;52.140;5.602;2023-09-19T08:02:45;15.90;99.90
35593;DHT22;64447;52.140;5.602;2023-09-19T08:05:12;15.90;99.90
35593;DHT22;64447;52.140;5.602;2023-09-19T08:07:42;15.90;99.90
35593;DHT22;64447;52.140;5.602;2023-09-19T08:10:09;16.00;99.90
35593;DHT22;64447;52.140;5.602;2023-09-19T08:12:45;16.00;99.90
35593;DHT22;64447;52.140;5.602;2023-09-19T08:15:18;16.10;99.90
35593;DHT22;64447;52.140;5.602;2023-09-19T08:17:45;15.90;99.90
35593;DHT22;64447;52.140;5.602;2023-09-19T08:20:11;16.00;99.90
35593;DHT22;64447;52.140;5.602;2023-09-19T08:22:49;16.10;99.90
35593;DHT22;64447;52.140;5.602;2023-09-19T08:25:18;16.10;99.90
35593;DHT22;64447;52.140;5.602;2023-09-19T08:27:44;16.20;99.90
35593;DHT22;64447;52.140;5.602;2023-09-19T08:30:21;16.20;99.90
35593;DHT22;64447;52.140;5.602;2023-09-19T08:32:50;16.30;99.90
35593;DHT22;64447;52.140;5.602;2023-09-19T08:35:16;16.40;99.90
35593;DHT22;64447;52.140;5.602;2023-09-19T08:37:44;16.40;99.90
35593;DHT22;64447;52.140;5.602;2023-09-19T08:40:13;16.50;99.90
35593;DHT22;64447;52.140;5.602;2023-09-19T08:42:52;16.40;99.90
35593;DHT22;64447;52.140;5.602;2023-09-19T08:45:20;16.50;99.90
35593;DHT22;64447;52.140;5.602;2023-09-19T08:47:53;16.50;99.90
35593;DHT22;64447;52.140;5.602;2023-09-19T08:50:26;16.50;99.90
35593;DHT22;64447;52.140;5.602;2023-09-19T08:52:55;16.70;99.90
35593;DHT22;64447;52.140;5.602;2023-09-19T08:55:25;16.70;99.90
35593;DHT22;64447;52.140;5.602;2023-09-19T08:57:52;16.80;99.90
35593;DHT22;64447;52.140;5.602;2023-09-19T09:00:20;16.80;99.90
35593;DHT22;64447;52.140;5.602;2023-09-19T09:02:48;16.90;99.90
35593;DHT22;64447;52.140;5.602;2023-09-19T09:05:16;16.90;99.90
35593;DHT22;64447;52.140;5.602;2023-09-19T09:07:48;17.00;99.90
35593;DHT22;64447;52.140;5.602;2023-09-19T09:10:18;17.10;99.90
35593;DHT22;64447;52.140;5.602;2023-09-19T09:12:43;17.10;99.90
35593;DHT22;64447;52.140;5.602;2023-09-19T09:15:09;17.20;99.90
35593;DHT22;64447;52.140;5.602;2023-09-19T09:17:38;17.30;99.90
35593;DHT22;64447;52.140;5.602;2023-09-19T09:20:03;17.40;99.90
35593;DHT22;64447;52.140;5.602;2023-09-19T09:25:56;17.50;99.90
35593;DHT22;64447;52.140;5.602;2023-09-19T09:28:26;17.60;99.90
35593;DHT22;64447;52.140;5.602;2023-09-19T09:30:52;17.80;99.90
35593;DHT22;64447;52.140;5.602;2023-09-19T09:33:18;17.90;99.90
35593;DHT22;64447;52.140;5.602;2023-09-19T09:35:52;17.80;99.90
35593;DHT22;64447;52.140;5.602;2023-09-19T09:38:22;17.80;99.90
35593;DHT22;64447;52.140;5.602;2023-09-19T09:40:54;17.80;99.90
35593;DHT22;64447;52.140;5.602;2023-09-19T09:43:37;17.80;99.90
35593;DHT22;64447;52.140;5.602;2023-09-19T09:46:07;17.90;99.90
35593;DHT22;64447;52.140;5.602;2023-09-19T09:48:59;18.00;99.90
35593;DHT22;64447;52.140;5.602;2023-09-19T09:51:59;18.10;99.90
35593;DHT22;64447;52.140;5.602;2023-09-19T09:54:27;18.20;99.90
35593;DHT22;64447;52.140;5.602;2023-09-19T09:57:01;18.20;99.90
35593;DHT22;64447;52.140;5.602;2023-09-19T10:02:14;18.30;99.90
35593;DHT22;64447;52.140;5.602;2023-09-19T10:04:45;18.40;99.90
35593;DHT22;64447;52.140;5.602;2023-09-19T10:07:30;18.30;99.90
35593;DHT22;64447;52.140;5.602;2023-09-19T10:10:08;18.50;99.90
35593;DHT22;64447;52.140;5.602;2023-09-19T10:12:44;18.60;99.90
35593;DHT22;64447;52.140;5.602;2023-09-19T10:15:11;18.60;99.90
35593;DHT22;64447;52.140;5.602;2023-09-19T10:17:43;18.60;99.90
35593;DHT22;64447;52.140;5.602;2023-09-19T10:20:12;18.60;99.90
35593;DHT22;64447;52.140;5.602;2023-09-19T10:22:49;18.60;99.90
35593;DHT22;64447;52.140;5.602;2023-09-19T10:25:27;18.60;99.90
35593;DHT22;64447;52.140;5.602;2023-09-19T10:28:01;18.60;99.90
35593;DHT22;64447;52.140;5.602;2023-09-19T10:30:44;18.40;99.90
35593;DHT22;64447;52.140;5.602;2023-09-19T10:33:15;18.30;99.90
35593;DHT22;64447;52.140;5.602;2023-09-19T10:35:50;18.30;99.90
35593;DHT22;64447;52.140;5.602;2023-09-19T10:38:22;18.20;99.90
35593;DHT22;64447;52.140;5.602;2023-09-19T10:40:53;18.20;99.90
35593;DHT22;64447;52.140;5.602;2023-09-19T10:43:20;18.30;99.90
35593;DHT22;64447;52.140;5.602;2023-09-19T10:45:49;18.40;99.90
35593;DHT22;64447;52.140;5.602;2023-09-19T10:48:16;18.50;99.90
35593;DHT22;64447;52.140;5.602;2023-09-19T10:54:13;18.70;99.90
35593;DHT22;64447;52.140;5.602;2023-09-19T10:56:49;19.00;99.90
35593;DHT22;64447;52.140;5.602;2023-09-19T10:59:19;19.00;99.90
35593;DHT22;64447;52.140;5.602;2023-09-19T11:01:49;19.00;99.90
35593;DHT22;64447;52.140;5.602;2023-09-19T11:04:37;19.00;99.90
35593;DHT22;64447;52.140;5.602;2023-09-19T11:10:47;19.00;99.90
35593;DHT22;64447;52.140;5.602;2023-09-19T11:13:26;18.90;99.90
35593;DHT22;64447;52.140;5.602;2023-09-19T11:18:51;18.80;99.90
35593;DHT22;64447;52.140;5.602;2023-09-19T11:24:29;19.00;99.90
35593;DHT22;64447;52.140;5.602;2023-09-19T11:27:15;19.10;99.90
35593;DHT22;64447;52.140;5.602;2023-09-19T11:29:43;19.20;99.90
35593;DHT22;64447;52.140;5.602;2023-09-19T11:32:09;19.30;99.90
35593;DHT22;64447;52.140;5.602;2023-09-19T11:34:42;19.30;99.90
35593;DHT22;64447;52.140;5.602;2023-09-19T11:39:37;19.50;99.90
35593;DHT22;64447;52.140;5.602;2023-09-19T11:48:16;19.30;99.90
35593;DHT22;64447;52.140;5.602;2023-09-19T11:50:45;19.30;99.90
35593;DHT22;64447;52.140;5.602;2023-09-19T11:53:12;19.30;99.90
35593;DHT22;64447;52.140;5.602;2023-09-19T11:55:41;19.20;99.90
35593;DHT22;64447;52.140;5.602;2023-09-19T11:58:09;19.10;99.90
35593;DHT22;64447;52.140;5.602;2023-09-19T12:00:35;19.20;99.90
35593;DHT22;64447;52.140;5.602;2023-09-19T12:03:10;19.30;99.90
35593;DHT22;64447;52.140;5.602;2023-09-19T12:05:37;19.30;99.90
35593;DHT22;64447;52.140;5.602;2023-09-19T12:08:04;19.30;99.90
35593;DHT22;64447;52.140;5.602;2023-09-19T12:10:33;19.30;99.90
35593;DHT22;64447;52.140;5.602;2023-09-19T12:12:58;19.30;99.90
35593;DHT22;64447;52.140;5.602;2023-09-19T12:15:28;19.30;99.90
35593;DHT22;64447;52.140;5.602;2023-09-19T12:18:00;19.30;99.90
35593;DHT22;64447;52.140;5.602;2023-09-19T12:20:41;19.20;99.90
35593;DHT22;64447;52.140;5.602;2023-09-19T12:23:13;19.20;99.90
35593;DHT22;64447;52.140;5.602;2023-09-19T12:25:43;19.20;99.90
35593;DHT22;64447;52.140;5.602;2023-09-19T12:28:12;19.30;99.90
35593;DHT22;64447;52.140;5.602;2023-09-19T12:30:38;19.20;99.90
35593;DHT22;64447;52.140;5.602;2023-09-19T12:33:23;19.20;99.90
35593;DHT22;64447;52.140;5.602;2023-09-19T12:35:51;19.30;99.90
35593;DHT22;64447;52.140;5.602;2023-09-19T12:38:28;19.30;99.90
35593;DHT22;64447;52.140;5.602;2023-09-19T12:40:57;19.30;99.90
35593;DHT22;64447;52.140;5.602;2023-09-19T12:43:28;19.30;99.90
35593;DHT22;64447;52.140;5.602;2023-09-19T12:45:58;19.20;99.90
35593;DHT22;64447;52.140;5.602;2023-09-19T12:48:26;19.20;99.90
35593;DHT22;64447;52.140;5.602;2023-09-19T12:51:03;19.30;99.90
35593;DHT22;64447;52.140;5.602;2023-09-19T12:53:34;19.30;99.90
35593;DHT22;64447;52.140;5.602;2023-09-19T12:56:05;19.20;99.90
35593;DHT22;64447;52.140;5.602;2023-09-19T12:58:34;19.20;99.90
35593;DHT22;64447;52.140;5.602;2023-09-19T13:01:01;19.10;99.90
35593;DHT22;64447;52.140;5.602;2023-09-19T13:03:30;19.10;99.90
35593;DHT22;64447;52.140;5.602;2023-09-19T13:06:03;19.10;99.90
35593;DHT22;64447;52.140;5.602;2023-09-19T13:08:39;19.00;99.90
35593;DHT22;64447;52.140;5.602;2023-09-19T13:11:12;19.00;99.90
35593;DHT22;64447;52.140;5.602;2023-09-19T13:14:13;19.00;99.90
35593;DHT22;64447;52.140;5.602;2023-09-19T13:16:55;19.10;99.90
35593;DHT22;64447;52.140;5.602;2023-09-19T13:19:57;19.30;99.90
35593;DHT22;64447;52.140;5.602;2023-09-19T13:25:44;19.30;99.90
35593;DHT22;64447;52.140;5.602;2023-09-19T13:28:11;19.30;99.90
35593;DHT22;64447;52.140;5.602;2023-09-19T13:30:37;19.30;99.90
35593;DHT22;64447;52.140;5.602;2023-09-19T13:33:11;19.20;99.90
35593;DHT22;64447;52.140;5.602;2023-09-19T13:35:38;19.10;99.90
35593;DHT22;64447;52.140;5.602;2023-09-19T13:41:27;18.90;99.90
35593;DHT22;64447;52.140;5.602;2023-09-19T13:43:54;18.90;99.90
35593;DHT22;64447;52.140;5.602;2023-09-19T13:46:21;19.00;99.90
35593;DHT22;64447;52.140;5.602;2023-09-19T13:48:51;19.20;99.90
35593;DHT22;64447;52.140;5.602;2023-09-19T13:51:20;19.30;99.90
35593;DHT22;64447;52.140;5.602;2023-09-19T13:57:09;19.30;99.90
35593;DHT22;64447;52.140;5.602;2023-09-19T13:59:35;19.40;99.90
35593;DHT22;64447;52.140;5.602;2023-09-19T14:02:01;19.40;99.90
35593;DHT22;64447;52.140;5.602;2023-09-19T14:04:31;19.60;99.90
35593;DHT22;64447;52.140;5.602;2023-09-19T14:06:57;19.60;99.90
35593;DHT22;64447;52.140;5.602;2023-09-19T14:09:23;19.70;99.90
35593;DHT22;64447;52.140;5.602;2023-09-19T14:11:50;19.60;99.90
35593;DHT22;64447;52.140;5.602;2023-09-19T14:14:21;19.40;99.90
35593;DHT22;64447;52.140;5.602;2023-09-19T14:16:49;19.50;99.90
35593;DHT22;64447;52.140;5.602;2023-09-19T14:19:15;19.50;99.90
35593;DHT22;64447;52.140;5.602;2023-09-19T14:21:42;19.50;99.90
35593;DHT22;64447;52.140;5.602;2023-09-19T14:27:30;19.40;99.90
35593;DHT22;64447;52.140;5.602;2023-09-19T14:29:55;19.30;99.90
35593;DHT22;64447;52.140;5.602;2023-09-19T14:32:23;19.30;99.90
35593;DHT22;64447;52.140;5.602;2023-09-19T14:34:48;19.30;99.90
35593;DHT22;64447;52.140;5.602;2023-09-19T14:37:14;19.20;99.90
35593;DHT22;64447;52.140;5.602;2023-09-19T14:39:42;19.30;99.90
35593;DHT22;64447;52.140;5.602;2023-09-19T14:42:10;19.30;99.90
35593;DHT22;64447;52.140;5.602;2023-09-19T14:44:36;19.30;99.90
35593;DHT22;64447;52.140;5.602;2023-09-19T14:47:03;19.30;99.90
35593;DHT22;64447;52.140;5.602;2023-09-19T14:49:35;19.40;99.90
35593;DHT22;64447;52.140;5.602;2023-09-19T14:52:04;19.30;99.90
35593;DHT22;64447;52.140;5.602;2023-09-19T14:57:54;19.30;99.90
35593;DHT22;64447;52.140;5.602;2023-09-19T15:00:22;19.30;99.90
35593;DHT22;64447;52.140;5.602;2023-09-19T15:02:49;19.20;99.90
35593;DHT22;64447;52.140;5.602;2023-09-19T15:05:16;19.20;99.90
35593;DHT22;64447;52.140;5.602;2023-09-19T15:07:41;19.10;99.90
35593;DHT22;64447;52.140;5.602;2023-09-19T15:10:07;19.10;99.90
35593;DHT22;64447;52.140;5.602;2023-09-19T15:12:38;19.10;99.90
35593;DHT22;64447;52.140;5.602;2023-09-19T15:15:06;19.00;99.90
35593;DHT22;64447;52.140;5.602;2023-09-19T15:17:36;18.90;99.90
35593;DHT22;64447;52.140;5.602;2023-09-19T15:20:02;18.80;99.90
35593;DHT22;64447;52.140;5.602;2023-09-19T15:28:53;18.70;99.90
35593;DHT22;64447;52.140;5.602;2023-09-19T15:31:19;18.80;99.90
35593;DHT22;64447;52.140;5.602;2023-09-19T15:33:45;18.70;99.90
35593;DHT22;64447;52.140;5.602;2023-09-19T15:36:12;18.80;99.90
35593;DHT22;64447;52.140;5.602;2023-09-19T15:39:02;18.90;99.90
35593;DHT22;64447;52.140;5.602;2023-09-19T15:41:33;18.80;99.90
35593;DHT22;64447;52.140;5.602;2023-09-19T15:44:01;18.80;99.90
35593;DHT22;64447;52.140;5.602;2023-09-19T15:46:27;18.50;99.90
35593;DHT22;64447;52.140;5.602;2023-09-19T15:48:54;18.40;99.90
35593;DHT22;64447;52.140;5.602;2023-09-19T15:51:20;18.40;99.90
35593;DHT22;64447;52.140;5.602;2023-09-19T15:53:51;18.40;99.90
35593;DHT22;64447;52.140;5.602;2023-09-19T15:56:17;18.50;99.90
35593;DHT22;64447;52.140;5.602;2023-09-19T15:58:47;18.50;99.90
35593;DHT22;64447;52.140;5.602;2023-09-19T16:01:13;18.50;99.90
35593;DHT22;64447;52.140;5.602;2023-09-19T16:03:43;18.60;99.90
35593;DHT22;64447;52.140;5.602;2023-09-19T16:06:10;18.60;99.90
35593;DHT22;64447;52.140;5.602;2023-09-19T16:08:46;18.50;99.90
35593;DHT22;64447;52.140;5.602;2023-09-19T16:11:12;18.40;99.90
35593;DHT22;64447;52.140;5.602;2023-09-19T16:13:39;18.40;99.90
35593;DHT22;64447;52.140;5.602;2023-09-19T16:16:09;18.30;99.90
35593;DHT22;64447;52.140;5.602;2023-09-19T16:18:59;18.30;99.90
35593;DHT22;64447;52.140;5.602;2023-09-19T16:21:27;18.20;99.90
35593;DHT22;64447;52.140;5.602;2023-09-19T16:23:53;18.30;99.90
35593;DHT22;64447;52.140;5.602;2023-09-19T16:26:20;18.30;99.90
35593;DHT22;64447;52.140;5.602;2023-09-19T16:28:47;18.40;99.90
35593;DHT22;64447;52.140;5.602;2023-09-19T16:31:14;18.40;99.90
35593;DHT22;64447;52.140;5.602;2023-09-19T16:33:43;18.40;99.90
35593;DHT22;64447;52.140;5.602;2023-09-19T16:36:10;18.40;99.90
35593;DHT22;64447;52.140;5.602;2023-09-19T16:38:37;18.40;99.90
35593;DHT22;64447;52.140;5.602;2023-09-19T16:41:04;18.40;99.90
35593;DHT22;64447;52.140;5.602;2023-09-19T16:43:30;18.40;99.90
35593;DHT22;64447;52.140;5.602;2023-09-19T16:46:02;18.40;99.90
35593;DHT22;64447;52.140;5.602;2023-09-19T16:48:29;18.40;99.90
35593;DHT22;64447;52.140;5.602;2023-09-19T16:50:59;18.50;99.90
35593;DHT22;64447;52.140;5.602;2023-09-19T16:53:25;18.50;99.90
35593;DHT22;64447;52.140;5.602;2023-09-19T16:55:51;18.60;99.90
35593;DHT22;64447;52.140;5.602;2023-09-19T16:58:17;18.60;99.90
35593;DHT22;64447;52.140;5.602;2023-09-19T17:00:44;18.60;99.90
35593;DHT22;64447;52.140;5.602;2023-09-19T17:03:11;18.60;99.90
35593;DHT22;64447;52.140;5.602;2023-09-19T17:05:38;18.60;99.90
35593;DHT22;64447;52.140;5.602;2023-09-19T17:08:09;18.60;99.90
35593;DHT22;64447;52.140;5.602;2023-09-19T17:14:15;18.50;99.90
35593;DHT22;64447;52.140;5.602;2023-09-19T17:16:40;18.40;99.90
35593;DHT22;64447;52.140;5.602;2023-09-19T17:19:07;18.40;99.90
35593;DHT22;64447;52.140;5.602;2023-09-19T17:21:34;18.50;99.90
35593;DHT22;64447;52.140;5.602;2023-09-19T17:23:59;18.40;99.90
35593;DHT22;64447;52.140;5.602;2023-09-19T17:26:25;18.40;99.90
35593;DHT22;64447;52.140;5.602;2023-09-19T17:28:55;18.40;99.90
35593;DHT22;64447;52.140;5.602;2023-09-19T17:31:23;18.40;99.90
35593;DHT22;64447;52.140;5.602;2023-09-19T17:33:50;18.40;99.90
35593;DHT22;64447;52.140;5.602;2023-09-19T17:36:17;18.40;99.90
35593;DHT22;64447;52.140;5.602;2023-09-19T17:38:48;18.40;99.90
35593;DHT22;64447;52.140;5.602;2023-09-19T17:41:14;18.30;99.90
35593;DHT22;64447;52.140;5.602;2023-09-19T17:43:41;18.30;99.90
35593;DHT22;64447;52.140;5.602;2023-09-19T17:46:15;18.20;99.90